Terminal Aerodrome Forecast
Issued by NWS Blacksburg, VA

Home | Current Version | Previous Version | Text Only | Print | Product List | Glossary On
Versions: 1 2 3 4 5 6 7 8 9 10 11 12 13 14 15 16 17 18 19 20 21 22 23 24 25
000
FTUS41 KRNK 261130
TAFLYH
TAF
KLYH 261130Z 2612/2712 20004KT P6SM SCT025 BKN250
      TEMPO 2612/2616 BKN025
     FM261600 21008G16KT P6SM SCT035 BKN060 BKN250
     FM270000 20005KT P6SM SCT060 BKN120=

USA.gov is the U.S. government's official web portal to all federal, state and local government web resources and services.